createdAt,value
2018-09-17T00:00:02.126Z,65.84
2018-09-17T00:00:42.533Z,66.03
2018-09-17T00:01:22.932Z,65.94
2018-09-17T00:02:03.371Z,65.84
2018-09-17T00:02:43.686Z,65.74
2018-09-17T00:03:24.091Z,65.74
2018-09-17T00:04:04.621Z,65.84
2018-09-17T00:04:44.968Z,65.94
2018-09-17T00:05:25.424Z,65.84
2018-09-17T00:06:05.886Z,65.84
2018-09-17T00:06:46.245Z,66.03
2018-09-17T00:07:26.543Z,66.03
2018-09-17T00:08:07.021Z,65.84
2018-09-17T00:08:47.404Z,66.13
2018-09-17T00:09:27.828Z,65.94
2018-09-17T00:10:08.240Z,66.32
2018-09-17T00:10:48.781Z,66.51
2018-09-17T00:11:29.182Z,67.08
2018-09-17T00:12:09.520Z,67.47
2018-09-17T00:12:50.015Z,67.47
2018-09-17T00:13:30.299Z,66.8
2018-09-17T00:14:10.764Z,67.56
2018-09-17T00:14:51.210Z,66.99
2018-09-17T00:15:31.624Z,67.08
2018-09-17T00:16:12.010Z,66.89
2018-09-17T00:16:52.525Z,67.18
2018-09-17T00:17:32.890Z,66.99
2018-09-17T00:18:13.363Z,67.18
2018-09-17T00:18:53.677Z,67.18
2018-09-17T00:19:34.152Z,68.04
2018-09-17T00:20:14.498Z,67.66
2018-09-17T00:20:54.850Z,67.85
2018-09-17T00:21:35.315Z,67.66
2018-09-17T00:22:15.790Z,67.66
2018-09-17T00:22:56.137Z,67.94
2018-09-17T00:23:36.441Z,67.47
2018-09-17T00:24:16.949Z,67.08
2018-09-17T00:24:57.242Z,67.27
2018-09-17T00:25:37.678Z,67.08
2018-09-17T00:26:18.097Z,67.08
2018-09-17T00:26:58.502Z,67.08
2018-09-17T00:27:38.949Z,67.08
2018-09-17T00:28:19.428Z,67.18
2018-09-17T00:28:59.794Z,67.18
2018-09-17T00:29:40.250Z,67.08
2018-09-17T00:30:20.550Z,67.14
2018-09-17T00:31:01.042Z,66.86
2018-09-17T00:31:41.492Z,66.86
2018-09-17T00:32:21.827Z,66.76
2018-09-17T00:33:02.306Z,67.14
2018-09-17T00:33:42.637Z,66.99
2018-09-17T00:34:23.180Z,67.43
2018-09-17T00:35:03.530Z,67.63
2018-09-17T00:35:43.946Z,67.24
2018-09-17T00:36:24.319Z,67.43
2018-09-17T00:37:04.666Z,67.08
2018-09-17T00:37:45.084Z,66.76
2018-09-17T00:38:25.440Z,67.14
2018-09-17T00:39:05.907Z,66.86
2018-09-17T00:39:46.333Z,66.96
2018-09-17T00:40:26.741Z,67.24
2018-09-17T00:41:07.157Z,66.67
2018-09-17T00:41:47.540Z,66.47
2018-09-17T00:42:28.064Z,67.24
2018-09-17T00:43:08.373Z,66.96
2018-09-17T00:43:48.817Z,66.86
2018-09-17T00:44:29.117Z,66.96
2018-09-17T00:45:09.590Z,67.14
2018-09-17T00:45:50.047Z,67.34
2018-09-17T00:46:30.506Z,67.63
2018-09-17T00:47:10.965Z,67.72
2018-09-17T00:47:51.280Z,68.2
2018-09-17T00:48:31.736Z,68.39
2018-09-17T00:49:12.253Z,68.39
2018-09-17T00:49:52.656Z,68.77
2018-09-17T00:50:33.043Z,68.68
2018-09-17T00:51:13.506Z,68.96
2018-09-17T00:51:53.841Z,68.96
2018-09-17T00:52:34.390Z,68.96
2018-09-17T00:53:14.799Z,68.29
2018-09-17T00:53:55.163Z,68.39
2018-09-17T00:54:35.530Z,68.39
2018-09-17T00:55:15.912Z,68.39
2018-09-17T00:55:56.283Z,68.29
2018-09-17T00:56:36.739Z,68.39
2018-09-17T00:57:17.146Z,68.2
2018-09-17T00:57:57.657Z,68.1
2018-09-17T00:58:37.905Z,68.1
2018-09-17T00:59:18.368Z,67.53
2018-09-17T00:59:58.711Z,67.72
2018-09-17T01:00:39.168Z,67.72
2018-09-17T01:01:19.519Z,68.39
2018-09-17T01:01:59.993Z,68.39
2018-09-17T01:02:40.391Z,68.01
2018-09-17T01:03:20.836Z,68.29
2018-09-17T01:04:01.272Z,67.63
2018-09-17T01:04:41.673Z,67.63
2018-09-17T01:05:22.093Z,67.63
2018-09-17T01:06:02.467Z,67.63
2018-09-17T01:06:42.908Z,68.1
2018-09-17T01:07:23.284Z,68.2
2018-09-17T01:08:03.724Z,68.29
2018-09-17T01:08:44.130Z,68.1
2018-09-17T01:09:24.542Z,68.1
2018-09-17T01:10:04.971Z,68.2
2018-09-17T01:10:45.280Z,68.29
2018-09-17T01:11:25.683Z,68.2
2018-09-17T01:12:06.124Z,68.29
2018-09-17T01:12:46.493Z,68.29
2018-09-17T01:13:27.030Z,68.1
2018-09-17T01:14:07.550Z,68.58
2018-09-17T01:14:47.754Z,68.2
2018-09-17T01:15:28.305Z,68.29
2018-09-17T01:16:08.767Z,68.49
2018-09-17T01:16:49.035Z,68.29
2018-09-17T01:17:29.503Z,68.2
2018-09-17T01:18:09.846Z,68.01
2018-09-17T01:18:51.965Z,68.1
2018-09-17T01:19:32.416Z,68.1
2018-09-17T01:20:12.741Z,68.29
2018-09-17T01:20:53.219Z,68.01
2018-09-17T01:21:33.536Z,68.35
2018-09-17T01:22:13.946Z,68.39
2018-09-17T01:22:54.361Z,68.2
2018-09-17T01:23:34.700Z,68.2
2018-09-17T01:24:15.136Z,68.16
2018-09-17T01:24:55.607Z,68.2
2018-09-17T01:25:36.022Z,68.2
2018-09-17T01:26:16.381Z,68.39
2018-09-17T01:26:56.876Z,68.84
2018-09-17T01:27:37.345Z,68.93
2018-09-17T01:28:17.818Z,68.74
2018-09-17T01:28:58.116Z,69.21
2018-09-17T01:29:38.682Z,69.7
2018-09-17T01:30:19.199Z,69.7
2018-09-17T01:30:59.475Z,69.7
2018-09-17T01:31:39.906Z,69.54
2018-09-17T01:32:20.320Z,69.12
2018-09-17T01:33:00.814Z,69.6
2018-09-17T01:33:41.173Z,68.68
2018-09-17T01:34:21.485Z,68.93
2018-09-17T01:35:01.942Z,68.74
2018-09-17T01:35:42.341Z,68.74
2018-09-17T01:36:22.830Z,69.02
2018-09-17T01:37:03.303Z,69.12
2018-09-17T01:37:43.787Z,69.6
2018-09-17T01:38:24.136Z,69.79
2018-09-17T01:39:04.538Z,69.12
2018-09-17T01:39:44.950Z,69.02
2018-09-17T01:40:25.358Z,68.64
2018-09-17T01:41:05.860Z,69.02
2018-09-17T01:41:46.278Z,68.74
2018-09-17T01:42:26.583Z,69.02
2018-09-17T01:43:07.025Z,69.21
2018-09-17T01:43:47.499Z,69.02
2018-09-17T01:44:27.938Z,69.12
2018-09-17T01:45:08.280Z,69.41
2018-09-17T01:45:48.651Z,69.5
2018-09-17T01:46:29.325Z,68.93
2018-09-17T01:47:09.673Z,69.02
2018-09-17T01:47:50.099Z,69.02
2018-09-17T01:48:30.492Z,68.93
2018-09-17T01:49:11.003Z,68.93
2018-09-17T01:49:51.403Z,69.12
2018-09-17T01:50:31.706Z,69.02
2018-09-17T01:51:12.216Z,69.31
2018-09-17T01:51:52.593Z,69.5
2018-09-17T01:52:33.079Z,69.98
2018-09-17T01:53:13.522Z,70.46
2018-09-17T01:53:53.951Z,70.65
2018-09-17T01:54:34.297Z,70.56
2018-09-17T01:55:14.795Z,70.17
2018-09-17T01:55:55.196Z,70.07
2018-09-17T01:56:35.585Z,69.98
2018-09-17T01:57:15.883Z,69.98
2018-09-17T01:57:56.331Z,70.17
2018-09-17T01:58:36.772Z,69.98
2018-09-17T01:59:17.177Z,69.7
2018-09-17T01:59:57.645Z,69.89
2018-09-17T02:00:38.047Z,70.56
2018-09-17T02:01:18.468Z,70.75
2018-09-17T02:01:58.823Z,70.65
2018-09-17T02:02:39.201Z,70.36
2018-09-17T02:03:19.627Z,70.84
2018-09-17T02:03:59.993Z,71.22
2018-09-17T02:04:40.503Z,71.03
2018-09-17T02:05:20.938Z,70.94
2018-09-17T02:06:01.939Z,70.84
2018-09-17T02:06:49.058Z,71.13
2018-09-17T02:07:29.408Z,70.65
2018-09-17T02:08:09.952Z,70.75
2018-09-17T02:08:50.312Z,70.56
2018-09-17T02:09:30.614Z,70.56
2018-09-17T02:10:10.997Z,69.89
2018-09-17T02:10:51.390Z,69.89
2018-09-17T02:11:31.919Z,70.17
2018-09-17T02:12:12.320Z,70.46
2018-09-17T02:12:52.684Z,70.75
2018-09-17T02:13:33.011Z,69.98
2018-09-17T02:14:13.508Z,69.79
2018-09-17T02:14:53.948Z,70.17
2018-09-17T02:15:34.347Z,70.07
2018-09-17T02:16:14.671Z,69.98
2018-09-17T02:16:55.150Z,70.07
2018-09-17T02:17:35.538Z,70.65
2018-09-17T02:18:15.983Z,70.56
2018-09-17T02:18:56.308Z,70.33
2018-09-17T02:19:36.804Z,70.9
2018-09-17T02:20:17.178Z,70.52
2018-09-17T02:20:57.505Z,70.61
2018-09-17T02:21:37.879Z,70.33
2018-09-17T02:22:18.354Z,70.52
2018-09-17T02:22:58.816Z,70.23
2018-09-17T02:23:39.262Z,71.09
2018-09-17T02:24:19.602Z,70.71
2018-09-17T02:24:59.965Z,71
2018-09-17T02:25:40.442Z,71.86
2018-09-17T02:26:20.781Z,72.05
2018-09-17T02:27:01.301Z,71.47
2018-09-17T02:27:41.704Z,71.67
2018-09-17T02:28:22.127Z,71.67
2018-09-17T02:29:02.517Z,71.47
2018-09-17T02:29:42.972Z,71.76
2018-09-17T02:30:23.467Z,71.76
2018-09-17T02:31:10.530Z,71.95
2018-09-17T02:31:50.881Z,71.76
2018-09-17T02:32:31.223Z,71.76
2018-09-17T02:33:11.695Z,71.38
2018-09-17T02:33:52.195Z,71.67
2018-09-17T02:34:32.619Z,71.86
2018-09-17T02:35:12.989Z,71.86
2018-09-17T02:35:53.442Z,71.76
2018-09-17T02:36:33.856Z,71.76
2018-09-17T02:37:14.160Z,71.57
2018-09-17T02:37:54.652Z,71.76
2018-09-17T02:38:35.115Z,72.14
2018-09-17T02:39:15.480Z,72.05
2018-09-17T02:39:55.863Z,72.33
2018-09-17T02:40:36.327Z,72.24
2018-09-17T02:41:16.734Z,71.95
2018-09-17T02:41:57.191Z,72.24
2018-09-17T02:42:37.580Z,72.97
2018-09-17T02:43:17.999Z,72.43
2018-09-17T02:43:58.424Z,72.97
2018-09-17T02:44:38.894Z,73.29
2018-09-17T02:45:19.363Z,72.81
2018-09-17T02:46:00.289Z,72.91
2018-09-17T02:46:40.812Z,72.91
2018-09-17T02:47:21.314Z,72.91
2018-09-17T02:48:01.756Z,72.91
2018-09-17T02:48:42.011Z,72.53
2018-09-17T02:49:22.473Z,71.95
2018-09-17T02:50:02.870Z,72.24
2018-09-17T02:50:43.257Z,72.72
2018-09-17T02:51:23.641Z,72.24
2018-09-17T02:52:04.071Z,72.43
2018-09-17T02:52:44.474Z,72.43
2018-09-17T02:53:24.993Z,72.43
2018-09-17T02:54:05.331Z,72.43
2018-09-17T02:54:45.644Z,72.33
2018-09-17T02:55:26.162Z,72.14
2018-09-17T02:56:06.497Z,72.58
2018-09-17T02:56:46.913Z,72.3
2018-09-17T02:57:27.250Z,72.78
2018-09-17T02:58:07.708Z,72.68
2018-09-17T02:58:48.129Z,72.53
2018-09-17T02:59:28.532Z,72.68
2018-09-17T03:00:08.954Z,72.97
2018-09-17T03:00:49.297Z,72.97
2018-09-17T03:01:29.686Z,73.16
2018-09-17T03:02:10.127Z,73.25
2018-09-17T03:02:50.534Z,73.54
2018-09-17T03:03:30.947Z,73.25
2018-09-17T03:04:11.356Z,73.44
2018-09-17T03:04:51.770Z,73.44
2018-09-17T03:05:32.155Z,73.44
2018-09-17T03:06:12.573Z,73.25
2018-09-17T03:06:53.036Z,72.97
2018-09-17T03:07:33.397Z,73.73
2018-09-17T03:08:13.818Z,73.44
2018-09-17T03:08:54.278Z,73.16
2018-09-17T03:09:34.667Z,73.35
2018-09-17T03:10:15.246Z,73.25
2018-09-17T03:10:55.563Z,73.63
2018-09-17T03:11:36.059Z,73.63
2018-09-17T03:12:16.371Z,73.16
2018-09-17T03:12:56.884Z,73.16
2018-09-17T03:13:37.328Z,72.97
2018-09-17T03:14:17.755Z,73.83
2018-09-17T03:14:58.046Z,73.73
2018-09-17T03:15:38.498Z,73.63
2018-09-17T03:16:18.850Z,73.63
2018-09-17T03:16:59.328Z,73.54
2018-09-17T03:17:39.718Z,73.63
2018-09-17T03:18:20.143Z,73.73
2018-09-17T03:19:00.565Z,73.63
2018-09-17T03:19:40.997Z,73.25
2018-09-17T03:20:21.456Z,73.83
2018-09-17T03:21:02.054Z,74.02
2018-09-17T03:21:42.283Z,73.35
2018-09-17T03:22:22.792Z,73.25
2018-09-17T03:23:03.185Z,73.73
2018-09-17T03:23:43.611Z,73.25
2018-09-17T03:24:24.079Z,73.35
2018-09-17T03:25:04.507Z,73.92
2018-09-17T03:25:44.862Z,73.35
2018-09-17T03:26:25.361Z,73.35
2018-09-17T03:27:05.813Z,73.63
2018-09-17T03:27:46.251Z,74.49
2018-09-17T03:28:26.689Z,74.49
2018-09-17T03:29:07.039Z,74.02
2018-09-17T03:29:47.621Z,73.25
2018-09-17T03:30:27.933Z,73.92
2018-09-17T03:31:08.395Z,73.54
2018-09-17T03:31:48.958Z,73.63
2018-09-17T03:32:29.197Z,73.63
2018-09-17T03:33:09.565Z,73.83
2018-09-17T03:33:49.984Z,73.83
2018-09-17T03:34:30.572Z,74.4
2018-09-17T03:35:10.855Z,74.59
2018-09-17T03:35:51.195Z,74.4
2018-09-17T03:36:31.698Z,74.78
2018-09-17T03:37:12.039Z,74.88
2018-09-17T03:37:52.566Z,75.07
2018-09-17T03:38:32.911Z,75.07
2018-09-17T03:39:13.380Z,74.88
2018-09-17T03:39:53.694Z,75.45
2018-09-17T03:40:34.203Z,75.35
2018-09-17T03:41:14.572Z,75.07
2018-09-17T03:41:54.988Z,74.88
2018-09-17T03:42:35.428Z,74.59
2018-09-17T03:43:15.905Z,74.59
2018-09-17T03:43:56.293Z,73.96
2018-09-17T03:44:36.697Z,74.11
2018-09-17T03:45:17.100Z,74.11
2018-09-17T03:45:57.475Z,74.82
2018-09-17T03:46:37.985Z,73.83
2018-09-17T03:47:18.267Z,74.15
2018-09-17T03:47:58.703Z,74.15
2018-09-17T03:48:39.145Z,74.11
2018-09-17T03:49:19.570Z,74.15
2018-09-17T03:49:59.969Z,74.05
2018-09-17T03:50:40.304Z,74.63
2018-09-17T03:51:20.703Z,74.63
2018-09-17T03:52:01.112Z,74.73
2018-09-17T03:52:41.596Z,74.63
2018-09-17T03:53:22.007Z,74.34
2018-09-17T03:54:02.360Z,74.05
2018-09-17T03:54:42.747Z,73.83
2018-09-17T03:55:23.229Z,74.05
2018-09-17T03:56:03.629Z,74.05
2018-09-17T03:56:44.006Z,73.83
2018-09-17T03:57:24.406Z,73.73
2018-09-17T03:58:04.835Z,74.21
2018-09-17T03:58:45.123Z,74.11
2018-09-17T03:59:25.565Z,74.21
2018-09-17T04:00:06.034Z,74.11
2018-09-17T04:00:46.384Z,74.49
2018-09-17T04:01:26.691Z,74.3
2018-09-17T04:02:07.200Z,75.07
2018-09-17T04:02:47.530Z,75.16
2018-09-17T04:03:27.978Z,74.98
2018-09-17T04:04:08.316Z,75.16
2018-09-17T04:04:48.741Z,75.54
2018-09-17T04:05:43.978Z,75.07
2018-09-17T04:06:24.370Z,75.35
2018-09-17T04:07:04.866Z,75.54
2018-09-17T04:07:45.264Z,75.54
2018-09-17T04:08:25.676Z,75.16
2018-09-17T04:09:06.071Z,75.07
2018-09-17T04:09:46.477Z,74.88
2018-09-17T04:12:01.479Z,74.98
2018-09-17T04:12:40.929Z,75.35
2018-09-17T04:13:21.388Z,75.07
2018-09-17T04:14:01.930Z,75.45
2018-09-17T04:14:42.276Z,75.54
2018-09-17T04:15:22.942Z,76.03
2018-09-17T04:16:03.749Z,76.21
2018-09-17T04:16:44.183Z,75.93
2018-09-17T04:17:24.597Z,76.03
2018-09-17T04:18:05.055Z,75.45
2018-09-17T04:18:45.416Z,75.35
2018-09-17T04:19:25.819Z,75.35
2018-09-17T04:20:06.155Z,75.83
2018-09-17T04:20:46.610Z,76.4
2018-09-17T04:21:26.955Z,76.27
2018-09-17T04:22:07.352Z,76.65
2018-09-17T04:22:47.840Z,77.08
2018-09-17T04:23:28.208Z,77.42
2018-09-17T04:24:08.715Z,77.17
2018-09-17T04:24:49.143Z,77.08
2018-09-17T04:25:29.494Z,76.69
2018-09-17T04:26:09.908Z,76.21
2018-09-17T04:26:50.325Z,76.65
2018-09-17T05:06:30.330Z,84.11
2018-09-17T05:07:32.136Z,84.4
2018-09-17T05:08:25.029Z,84.49
2018-09-17T05:09:17.861Z,84.78
2018-09-17T05:10:16.462Z,84.2
2018-09-17T05:11:09.534Z,85.35
2018-09-17T05:12:02.398Z,85.06
2018-09-17T05:12:55.165Z,84.49
2018-09-17T05:13:48.635Z,84.3
2018-09-17T05:14:42.271Z,84.01
2018-09-17T05:15:34.845Z,84.2
2018-09-17T05:16:49.475Z,83.92
2018-09-17T05:17:48.886Z,83.92
2018-09-17T05:19:00.585Z,83.92
2018-09-17T05:36:55.374Z,70.4
2018-09-17T05:37:58.772Z,70.01
2018-09-17T05:43:31.932Z,71.26
2018-09-17T05:48:34.857Z,71.22
2018-09-17T05:51:35.434Z,71.26
2018-09-17T05:52:29.388Z,70.87
2018-09-17T05:53:21.689Z,71.16
2018-09-17T05:55:43.750Z,70.11
2018-09-17T06:14:11.859Z,64.95
2018-09-17T06:15:10.059Z,64.95
2018-09-17T06:18:35.933Z,63.7
2018-09-17T06:19:20.962Z,63.54
2018-09-17T06:20:01.779Z,63.54
2018-09-17T06:20:43.162Z,62.87
2018-09-17T06:21:23.971Z,62.39
2018-09-17T06:22:04.127Z,63.16
2018-09-17T06:22:44.922Z,62.68
2018-09-17T06:23:25.361Z,62.2
2018-09-17T06:24:06.132Z,62.3
2018-09-17T06:24:46.484Z,62.13
2018-09-17T06:25:28.981Z,62.23
2018-09-17T06:26:10.473Z,61.46
2018-09-17T06:26:50.720Z,61.56
2018-09-17T06:27:31.653Z,60.99
2018-09-17T06:28:12.809Z,61.02
2018-09-17T06:28:53.533Z,60.44
2018-09-17T06:29:34.085Z,60.44
2018-09-17T06:30:14.833Z,60.05
2018-09-17T06:30:55.623Z,58.91
2018-09-17T06:31:41.069Z,59.09
2018-09-17T06:32:21.061Z,58.45
2018-09-17T06:33:01.777Z,58.74
2018-09-17T06:33:42.877Z,58.45
2018-09-17T06:34:23.373Z,57.88
2018-09-17T06:35:03.892Z,57.59
2018-09-17T06:35:44.257Z,57.23
2018-09-17T06:36:25.149Z,56.76
2018-09-17T06:37:05.294Z,56.56
2018-09-17T06:37:48.756Z,56.37
2018-09-17T06:38:31.284Z,55.73
2018-09-17T06:52:07.180Z,51.35
2018-09-17T06:52:46.474Z,51.38
2018-09-17T06:53:27.065Z,51.38
2018-09-17T06:54:07.592Z,51.57
2018-09-17T06:54:48.178Z,51.09
2018-09-17T06:55:28.713Z,50.71
2018-09-17T06:56:09.100Z,50.81
2018-09-17T06:56:49.609Z,50.45
2018-09-17T06:57:29.978Z,50.15
2018-09-17T06:58:10.359Z,49.96
2018-09-17T06:58:50.992Z,49.41
2018-09-17T07:01:13.237Z,48.74
2018-09-17T07:01:56.318Z,48.93
2018-09-17T07:02:36.248Z,48.83
2018-09-17T07:03:16.825Z,48.54
2018-09-17T07:03:57.566Z,48.35
2018-09-17T07:04:38.223Z,48.18
2018-09-17T07:05:18.715Z,47.7
2018-09-17T07:05:59.202Z,47.41
2018-09-17T07:06:39.795Z,47.12
2018-09-17T07:07:20.213Z,46.83
2018-09-17T07:08:00.678Z,46.45
2018-09-17T07:08:41.371Z,46.95
2018-09-17T07:09:21.858Z,46.47
2018-09-17T07:10:02.170Z,46.86
2018-09-17T07:10:43.424Z,46.18
2018-09-17T07:11:24.365Z,46.95
2018-09-17T07:12:05.369Z,46.66
2018-09-17T07:12:45.910Z,46.56
2018-09-17T07:13:26.795Z,46.11
2018-09-17T07:14:08.860Z,45.82
2018-09-17T07:14:49.458Z,45.72
2018-09-17T07:15:30.394Z,45.53
2018-09-17T07:16:11.443Z,44.76
2018-09-17T07:16:52.408Z,44.59
2018-09-17T07:17:32.976Z,44.39
2018-09-17T07:18:13.807Z,44.22
2018-09-17T07:18:54.836Z,43.54
2018-09-17T07:19:36.366Z,43.35
2018-09-17T07:20:16.748Z,43.18
2018-09-17T07:22:43.617Z,42.7
2018-09-17T07:25:24.841Z,41.75
2018-09-17T07:26:30.993Z,41.17
2018-09-17T07:28:45.327Z,41.48
2018-09-17T07:32:20.824Z,40.44
2018-09-17T07:33:17.945Z,39.88
2018-09-17T07:34:22.089Z,39.57
2018-09-17T07:35:18.118Z,39.78
2018-09-17T07:36:14.152Z,39.39
2018-09-17T07:37:08.636Z,39.49
2018-09-17T07:38:04.961Z,39.49
2018-09-17T07:39:01.065Z,39.39
2018-09-17T07:39:58.667Z,39.61
2018-09-17T07:40:53.501Z,38.81
2018-09-17T07:41:46.838Z,39.03
2018-09-17T07:42:40.107Z,38.54
2018-09-17T07:43:46.383Z,38.54
2018-09-17T07:44:43.088Z,39.03
2018-09-17T07:46:52.462Z,38.45
2018-09-17T07:47:46.883Z,38.54
2018-09-17T07:48:41.088Z,38.45
2018-09-17T07:49:34.719Z,38.64
2018-09-17T07:53:21.745Z,37.61
2018-09-17T07:54:02.656Z,37.81
2018-09-17T07:54:43.604Z,37.71
2018-09-17T07:55:23.845Z,37.88
2018-09-17T07:56:05.019Z,37.88
2018-09-17T07:56:45.675Z,38.19
2018-09-17T07:57:29.296Z,38.09
2018-09-17T07:59:27.340Z,37.9
2018-09-17T08:00:21.373Z,37.51
2018-09-17T08:01:18.847Z,37.9
2018-09-17T08:02:21.434Z,38
2018-09-17T08:03:24.397Z,38.29
2018-09-17T08:04:21.361Z,38.19
2018-09-17T08:05:22.204Z,38
2018-09-17T08:06:22.168Z,37.32
2018-09-17T08:07:18.358Z,37.63
2018-09-17T08:08:12.626Z,37.53
2018-09-17T08:09:08.259Z,37.34
2018-09-17T08:10:01.765Z,37.53
2018-09-17T08:10:56.248Z,37.53
2018-09-17T08:11:49.065Z,37.34
2018-09-17T08:12:44.339Z,37.73
2018-09-17T08:13:36.820Z,37.73
2018-09-17T08:14:35.726Z,37.07
2018-09-17T08:15:29.200Z,36.77
2018-09-17T08:16:29.228Z,36.97
2018-09-17T08:17:19.153Z,36.87
2018-09-17T08:20:18.664Z,36.21
2018-09-17T08:21:19.457Z,35.53
2018-09-17T08:22:11.998Z,35.55
2018-09-17T08:23:12.741Z,35.06
2018-09-17T08:24:10.940Z,35.24
2018-09-17T08:25:06.367Z,35.53
2018-09-17T08:26:05.138Z,35.53
2018-09-17T08:27:00.478Z,35.25
2018-09-17T08:27:52.775Z,35.06
2018-09-17T08:28:50.820Z,35.35
2018-09-17T08:30:57.684Z,35.35
2018-09-17T08:32:27.654Z,34.58
2018-09-17T08:33:24.235Z,34.67
2018-09-17T08:34:18.360Z,34.4
2018-09-17T08:35:13.152Z,34.5
2018-09-17T08:36:07.515Z,34.2
2018-09-17T08:37:01.152Z,33.91
2018-09-17T08:37:55.581Z,34.32
2018-09-17T08:38:47.976Z,34.12
2018-09-17T08:39:42.356Z,32.97
2018-09-17T08:40:35.898Z,32.87
2018-09-17T08:41:31.675Z,32.4
2018-09-17T08:42:29.863Z,32.11
2018-09-17T08:43:29.270Z,31.74
2018-09-17T08:44:30.199Z,31.45
2018-09-17T08:45:29.884Z,30.98
2018-09-17T08:46:26.696Z,30.98
2018-09-17T08:47:29.131Z,30.6
2018-09-17T08:48:32.470Z,29.92
2018-09-17T08:49:37.065Z,29.83
2018-09-17T08:53:36.379Z,29.44
2018-09-17T08:55:33.023Z,29.17
2018-09-17T08:56:11.195Z,29.07
2018-09-17T08:56:52.839Z,28.88
2018-09-17T08:57:34.179Z,28.79
2018-09-17T08:58:14.695Z,28.59
2018-09-17T08:58:55.007Z,28.5
2018-09-17T08:59:35.600Z,28.03
2018-09-17T09:00:17.007Z,28.32
2018-09-17T09:01:12.010Z,28.11
2018-09-17T09:01:54.046Z,28.19
2018-09-17T09:02:34.689Z,28.47
2018-09-17T09:03:15.721Z,29.14
2018-09-17T09:03:56.351Z,29.33
2018-09-17T09:04:37.261Z,28.94
2018-09-17T09:05:18.765Z,29.24
2018-09-17T09:05:59.881Z,29.04
2018-09-17T09:06:40.781Z,28.94
2018-09-17T09:07:21.376Z,28.96
2018-09-17T09:08:02.116Z,28.67
2018-09-17T09:08:42.956Z,28.57
2018-09-17T09:09:24.467Z,28.18
2018-09-17T09:10:04.151Z,27.7
2018-09-17T09:10:44.871Z,27.9
2018-09-17T09:11:25.406Z,28.09
2018-09-17T09:12:06.065Z,28.19
2018-09-17T09:12:50.198Z,27.72
2018-09-17T09:13:30.933Z,27.42
2018-09-17T09:14:11.585Z,27.52
2018-09-17T09:14:52.130Z,27.33
2018-09-17T09:15:36.582Z,28.03
2018-09-17T09:16:18.382Z,28.11
2018-09-17T09:16:59.389Z,28.01
2018-09-17T09:17:40.096Z,28.2
2018-09-17T09:18:21.194Z,27.93
2018-09-17T09:19:01.969Z,27.83
2018-09-17T09:20:29.993Z,26.87
2018-09-17T09:21:10.521Z,26.97
2018-09-17T09:21:54.833Z,27.05
2018-09-17T09:22:35.734Z,27.05
2018-09-17T09:23:17.629Z,27.25
2018-09-17T09:23:57.911Z,27.64
2018-09-17T09:24:39.088Z,27.15
2018-09-17T09:25:21.512Z,26.95
2018-09-17T09:26:02.952Z,27.15
2018-09-17T09:26:43.549Z,26.57
2018-09-17T09:27:24.101Z,27.15
2018-09-17T09:28:11.342Z,27.15
2018-09-17T09:28:53.028Z,27.05
2018-09-17T09:29:34.450Z,27.25
2018-09-17T09:30:14.596Z,27.64
2018-09-17T09:30:56.592Z,27.64
2018-09-17T09:31:38.831Z,27.64
2018-09-17T09:32:19.523Z,27.73
2018-09-17T09:32:59.765Z,27.54
2018-09-17T09:37:42.315Z,26.57
2018-09-17T09:38:45.497Z,25.71
2018-09-17T09:40:00.714Z,25.12
2018-09-17T09:41:01.133Z,25.12
2018-09-17T09:42:07.715Z,25.04
2018-09-17T09:43:11.811Z,24.93
2018-09-17T09:45:10.553Z,25.51
2018-09-17T09:46:19.310Z,25.7
2018-09-17T09:47:22.379Z,25.4
2018-09-17T09:48:25.522Z,25.5
2018-09-17T09:52:34.854Z,25.01
2018-09-17T10:02:03.661Z,22.44
2018-09-17T10:03:03.730Z,21.75
2018-09-17T10:04:01.117Z,21.76
2018-09-17T10:05:04.979Z,21.95
2018-09-17T10:07:30.086Z,22.41
2018-09-17T10:08:23.503Z,22.99
2018-09-17T10:09:31.854Z,23.76
2018-09-17T10:10:42.505Z,23.85
2018-09-17T10:18:57.731Z,23.76
2018-09-17T10:19:33.823Z,23.66
2018-09-17T10:20:18.376Z,23.46
2018-09-17T10:20:58.777Z,23.47
2018-09-17T10:21:39.915Z,23.96
2018-09-17T10:22:20.913Z,23.19
2018-09-17T10:23:00.871Z,23.19
2018-09-17T10:23:43.007Z,22.91
2018-09-17T10:24:23.642Z,21.73
2018-09-17T10:25:05.442Z,21.06
2018-09-17T10:25:45.891Z,21.14
2018-09-17T10:26:25.958Z,21.13
2018-09-17T10:27:06.527Z,21.92
2018-09-17T10:28:02.297Z,22.31
2018-09-17T10:28:43.945Z,21.53
2018-09-17T11:08:30.690Z,17.39
2018-09-17T11:10:39.902Z,16.99
2018-09-17T11:11:34.126Z,17.29
2018-09-17T11:12:42.700Z,17.29
2018-09-17T11:13:48.735Z,17.29
2018-09-17T11:14:45.563Z,17.19
2018-09-17T11:15:39.392Z,17.38
2018-09-17T11:16:33.796Z,16.8
2018-09-17T11:17:28.238Z,17.47
2018-09-17T11:18:40.445Z,18.24
2018-09-17T11:27:47.890Z,17.29
2018-09-17T11:47:51.630Z,16.31
2018-09-17T11:50:27.260Z,16.02
2018-09-17T11:51:19.938Z,15.34
2018-09-17T11:52:15.034Z,15.14
2018-09-17T11:53:11.412Z,15.42
2018-09-17T11:54:05.798Z,15.81
2018-09-17T11:55:04.386Z,16.39
2018-09-17T11:56:13.516Z,17.07
2018-09-17T11:57:18.384Z,17.07
2018-09-17T11:58:16.479Z,16.67
2018-09-17T11:59:15.492Z,16.08
2018-09-17T12:00:22.285Z,16.27
2018-09-17T12:01:34.328Z,16.38
2018-09-17T12:02:36.602Z,16.28
2018-09-17T12:04:33.811Z,16.69
2018-09-17T12:05:31.555Z,16.39
2018-09-17T12:06:37.209Z,16.69
2018-09-17T12:07:32.133Z,16.31
2018-09-17T12:08:24.527Z,16.21
2018-09-17T12:09:17.931Z,15.83
2018-09-17T12:10:11.385Z,15.54
2018-09-17T12:11:05.044Z,14.86
2018-09-17T12:11:58.784Z,14.87
2018-09-17T12:12:51.585Z,14.87
2018-09-17T12:13:45.397Z,14.67
2018-09-17T12:14:38.075Z,14.78
2018-09-17T12:15:30.724Z,14.28
2018-09-17T12:16:23.106Z,14.58
2018-09-17T12:17:19.739Z,14.18
2018-09-17T12:18:11.477Z,15.06
2018-09-17T12:19:06.204Z,14.76
2018-09-17T12:20:00.505Z,14.76
2018-09-17T12:22:36.557Z,15.92
2018-09-17T12:23:30.631Z,15.34
2018-09-17T12:24:23.214Z,15.72
2018-09-17T12:26:49.904Z,15.72
2018-09-17T12:27:44.061Z,16.4
2018-09-17T12:28:36.697Z,16.4
2018-09-17T12:29:30.781Z,15.61
2018-09-17T12:30:26.172Z,15.8
2018-09-17T12:31:20.323Z,15.61
2018-09-17T12:32:19.349Z,15.11
2018-09-17T12:33:26.958Z,15.12
2018-09-17T12:34:20.015Z,15.12
2018-09-17T12:35:17.148Z,15.72
2018-09-17T12:36:10.610Z,15.13
2018-09-17T12:37:16.258Z,15.22
2018-09-17T12:38:10.914Z,15.61
2018-09-17T12:39:07.558Z,15.51
2018-09-17T12:40:04.820Z,16
2018-09-17T17:23:16.739Z,31.84
2018-09-17T17:24:00.317Z,32.23
2018-09-17T17:24:40.857Z,31.84
2018-09-17T17:25:23.177Z,31.84
2018-09-17T17:26:04.856Z,32.23
2018-09-17T17:26:45.885Z,31.65
2018-09-17T17:27:25.965Z,31.55
2018-09-17T17:28:08.649Z,31.74
2018-09-17T17:28:49.081Z,32.04
2018-09-17T17:29:29.495Z,31.84
2018-09-17T17:30:10.978Z,31.94
2018-09-17T17:30:51.397Z,31.84
2018-09-17T17:31:31.819Z,32.23
2018-09-17T17:32:13.723Z,32.21
2018-09-17T17:32:54.311Z,32.02
2018-09-17T17:33:34.914Z,31.63
2018-09-17T17:34:16.236Z,31.82
2018-09-17T17:34:59.079Z,32.02
2018-09-17T17:35:39.627Z,31.92
2018-09-17T17:36:21.208Z,32.31
2018-09-17T17:37:02.255Z,31.92
2018-09-17T17:37:42.519Z,31.92
2018-09-17T17:38:23.727Z,32.12
2018-09-17T17:39:04.178Z,31.82
2018-09-17T17:39:44.727Z,31.44
2018-09-17T17:40:25.094Z,31.35
2018-09-17T17:41:05.424Z,31.35
2018-09-17T17:41:46.060Z,31.53
2018-09-17T17:42:26.266Z,31.34
2018-09-17T17:43:06.810Z,31.35
2018-09-17T17:43:47.298Z,31.44
2018-09-17T17:44:28.813Z,31.84
2018-09-17T17:45:09.847Z,32.12
2018-09-17T17:45:49.855Z,32.13
2018-09-17T17:46:30.334Z,32.21
2018-09-17T17:47:10.681Z,32.21
2018-09-17T17:47:51.028Z,32.12
2018-09-17T17:48:31.469Z,32.31
2018-09-17T17:49:11.869Z,32.23
2018-09-17T17:49:52.266Z,31.92
2018-09-17T17:50:32.658Z,32.21
2018-09-17T17:51:13.542Z,32.21
2018-09-17T17:51:53.991Z,32.31
2018-09-17T17:52:34.333Z,32.21
2018-09-17T17:53:14.780Z,31.92
2018-09-17T17:53:55.168Z,32.12
2018-09-17T17:54:35.619Z,31.82
2018-09-17T17:55:15.916Z,31.82
2018-09-17T17:55:56.278Z,32.21
2018-09-17T17:56:36.708Z,31.92
2018-09-17T17:57:17.186Z,31.82
2018-09-17T17:57:57.862Z,31.44
2018-09-17T17:58:37.940Z,30.85
2018-09-17T17:59:18.367Z,31.44
2018-09-17T17:59:58.764Z,32.02
2018-09-17T18:00:39.340Z,31.63
2018-09-17T18:01:19.639Z,30.95
2018-09-17T18:06:22.887Z,26.57
2018-09-17T18:07:03.030Z,27.93